Informes de METARS cercanos

 

LEAL - Alicante/El Alte, Spain
Distance from station: SSE 60km
Actualización: 26/02/2024 18:30
Parcialmente nuboso
Parcialmente nuboso
 Viento del O
Viento: O 22 km/h
Temperatura: 16°C
Rocío: 1°C
Humedad: 36%
Barómetro: 1003 hPa
Clouds: Parcialmente nuboso
Visibility: 10 km
Cloud details: Poco nuboso 366 m
Parcialmente nuboso 1981 m
2024/02/26 17:30 LEAL 261730Z 28012KT 250V320 9999 FEW012 SCT065 16/01 Q1003 NOSIG
LEVC - Valencia (civ/Mi, Spain
Distance from station: NNE 84km
Actualización: 26/02/2024 18:30
Poco nuboso
Poco nuboso
 Viento del NO
Viento: NO 17 km/h
Temperatura: 17°C
Rocío: -2°C
Humedad: 27%
Barómetro: 1001 hPa
Clouds: Poco nuboso
Visibility: 10 km
Cloud details: Poco nuboso 1524 m
2024/02/26 17:30 LEVC 261730Z 31009KT 290V350 9999 FEW050 17/M02 Q1001 NOSIG
 
LEAB - Albacete (civ/Mi, Spain
Distance from station: O 95km
Actualización: 26/02/2024 18:30
Poco nuboso
Poco nuboso
 Viento del NO
Viento: NO 37 km/h
Temperatura: 9°C
Wind Chill: 4°C
Rocío: -1°C
Humedad: 50%
Barómetro: 1005 hPa
Clouds: Poco nuboso
Visibility: 10 km
Cloud details: Poco nuboso 1219 m
2024/02/26 17:30 LEAB 261730Z 31020KT 9999 FEW040TCU 09/M01 Q1005 NOSIG
LERI - Alcantarilla(Sp-, Spain
Distance from station: SSO 100km
Actualización: 26/02/2024 18:30
Poco nuboso
Poco nuboso
 Viento del ONO
Viento: ONO 22 km/h
Temperatura: 14°C
Rocío: 1°C
Humedad: 41%
Barómetro: 1005 hPa
Clouds: Poco nuboso
Visibility: 10 km
Cloud details: Poco nuboso 1829 m
2024/02/26 17:30 LERI 261730Z 29012KT 240V320 9999 FEW060 14/01 Q1005 NOSIG
 
LELC - San Javier(Mil/C, Spain
Distance from station: S 113km
Actualización: 26/02/2024 18:30
Despejado
Despejado
 Viento del ONO
Viento: ONO 24 km/h
Temperatura: 18°C
Rocío: 3°C
Humedad: 37%
Barómetro: 1004 hPa
Resumen: Despejado
Visibility: greater than 10 km
2024/02/26 17:30 LELC 261730Z 30013KT CAVOK 18/03 Q1004 NOSIG
LEIB - Ibiza/Es Codola, Spain
Distance from station: E 186km
Actualización: 26/02/2024 18:30
Poco nuboso
Poco nuboso
 Viento del E
Viento: E 9 km/h
Temperatura: 14°C
Rocío: 9°C
Humedad: 72%
Barómetro: 1001 hPa
Clouds: Poco nuboso
Visibility: 10 km
Cloud details: Poco nuboso 914 m
2024/02/26 17:30 LEIB 261730Z 10005KT 9999 FEW030 14/09 Q1001 TEMPO 3000 TSRA FEW030CB
 
LEAM - Almeria Airport, Spain
Distance from station: SSO 256km
Actualización: 26/02/2024 18:30
Muy nuboso
Muy nuboso
 Viento del NNO
Viento: NNO 54 km/h, Racha: 81 km/h
Temperatura: 15°C
Rocío: 2°C
Humedad: 42%
Barómetro: 1005 hPa
Clouds: Muy nuboso
Visibility: 10 km
Cloud details: Poco nuboso 1524 m
Muy nuboso 2438 m
2024/02/26 17:30 LEAM 261730Z 33029G44KT 9999 FEW050TCU BKN080 15/02 Q1005
LEMD - Madrid/Barajas, Spain
Distance from station: NO 305km
Actualización: 26/02/2024 18:30
Poco nuboso
Poco nuboso
 Viento del O
Viento: O 19 km/h
Temperatura: 9°C
Wind Chill: 6°C
Rocío: 2°C
Humedad: 62%
Barómetro: 1007 hPa
Clouds: Poco nuboso
Visibility: 10 km
Cloud details: Poco nuboso 1372 m
2024/02/26 17:30 LEMD 261730Z 28010KT 260V330 9999 FEW045 09/02 Q1007 NOSIG
 
LEPA - Palma De Mallorc, Spain
Distance from station: ENE 313km
Actualización: 26/02/2024 18:30
Poco nuboso
Poco nuboso
 Viento del SO
Viento: SO 7 km/h
Temperatura: 13°C
Rocío: 10°C
Humedad: 82%
Barómetro: 1000 hPa
Clouds: Poco nuboso
Visibility: 10 km
Cloud details: Poco nuboso 671 m
2024/02/26 17:30 LEPA 261730Z 23004KT 9999 FEW022 13/10 Q1000 NOSIG